sensor_id;sensor_type;location;lat;lon;timestamp;P1;durP1;ratioP1;P2;durP2;ratioP2
48847;SDS011;36611;51.638;5.784;2023-02-11T00:02:11;25.77;;;18.00;;
48847;SDS011;36611;51.638;5.784;2023-02-11T00:04:38;26.20;;;17.98;;
48847;SDS011;36611;51.638;5.784;2023-02-11T00:07:05;26.52;;;17.52;;
48847;SDS011;36611;51.638;5.784;2023-02-11T00:09:31;27.23;;;17.77;;
48847;SDS011;36611;51.638;5.784;2023-02-11T00:11:58;25.90;;;18.33;;
48847;SDS011;36611;51.638;5.784;2023-02-11T00:14:24;23.95;;;16.88;;
48847;SDS011;36611;51.638;5.784;2023-02-11T00:16:51;24.52;;;16.00;;
48847;SDS011;36611;51.638;5.784;2023-02-11T00:19:18;26.52;;;16.52;;
48847;SDS011;36611;51.638;5.784;2023-02-11T00:21:45;30.83;;;16.73;;
48847;SDS011;36611;51.638;5.784;2023-02-11T00:24:12;24.15;;;15.55;;
48847;SDS011;36611;51.638;5.784;2023-02-11T00:26:38;22.08;;;14.88;;
48847;SDS011;36611;51.638;5.784;2023-02-11T00:29:05;22.90;;;15.00;;
48847;SDS011;36611;51.638;5.784;2023-02-11T00:31:32;28.85;;;16.25;;
48847;SDS011;36611;51.638;5.784;2023-02-11T00:33:59;19.08;;;13.85;;
48847;SDS011;36611;51.638;5.784;2023-02-11T00:36:27;23.00;;;14.30;;
48847;SDS011;36611;51.638;5.784;2023-02-11T00:38:55;21.45;;;13.43;;
48847;SDS011;36611;51.638;5.784;2023-02-11T00:41:22;25.52;;;14.15;;
48847;SDS011;36611;51.638;5.784;2023-02-11T00:43:49;21.30;;;14.40;;
48847;SDS011;36611;51.638;5.784;2023-02-11T00:46:17;21.15;;;13.57;;
48847;SDS011;36611;51.638;5.784;2023-02-11T00:48:44;23.45;;;13.60;;
48847;SDS011;36611;51.638;5.784;2023-02-11T00:51:11;20.30;;;12.45;;
48847;SDS011;36611;51.638;5.784;2023-02-11T00:53:38;20.92;;;13.63;;
48847;SDS011;36611;51.638;5.784;2023-02-11T00:56:05;20.38;;;14.32;;
48847;SDS011;36611;51.638;5.784;2023-02-11T00:58:33;25.25;;;13.40;;
48847;SDS011;36611;51.638;5.784;2023-02-11T01:01:00;24.02;;;13.52;;
48847;SDS011;36611;51.638;5.784;2023-02-11T01:03:27;21.35;;;14.02;;
48847;SDS011;36611;51.638;5.784;2023-02-11T01:05:54;19.80;;;13.35;;
48847;SDS011;36611;51.638;5.784;2023-02-11T01:08:20;18.75;;;12.38;;
48847;SDS011;36611;51.638;5.784;2023-02-11T01:10:57;26.75;;;14.38;;
48847;SDS011;36611;51.638;5.784;2023-02-11T01:13:32;19.90;;;12.40;;
48847;SDS011;36611;51.638;5.784;2023-02-11T01:16:00;20.33;;;12.65;;
48847;SDS011;36611;51.638;5.784;2023-02-11T01:18:27;17.50;;;12.05;;
48847;SDS011;36611;51.638;5.784;2023-02-11T01:20:54;26.30;;;13.20;;
48847;SDS011;36611;51.638;5.784;2023-02-11T01:23:21;18.38;;;12.70;;
48847;SDS011;36611;51.638;5.784;2023-02-11T01:25:48;21.58;;;12.00;;
48847;SDS011;36611;51.638;5.784;2023-02-11T01:28:20;19.77;;;11.88;;
48847;SDS011;36611;51.638;5.784;2023-02-11T01:30:50;20.70;;;11.77;;
48847;SDS011;36611;51.638;5.784;2023-02-11T01:33:17;21.92;;;12.48;;
48847;SDS011;36611;51.638;5.784;2023-02-11T01:35:45;22.33;;;11.38;;
48847;SDS011;36611;51.638;5.784;2023-02-11T01:38:15;17.23;;;11.25;;
48847;SDS011;36611;51.638;5.784;2023-02-11T01:43:19;23.25;;;11.73;;
48847;SDS011;36611;51.638;5.784;2023-02-11T01:48:14;18.52;;;11.85;;
48847;SDS011;36611;51.638;5.784;2023-02-11T01:50:47;17.55;;;10.82;;
48847;SDS011;36611;51.638;5.784;2023-02-11T01:53:16;19.10;;;11.27;;
48847;SDS011;36611;51.638;5.784;2023-02-11T01:56:03;19.98;;;11.52;;
48847;SDS011;36611;51.638;5.784;2023-02-11T01:58:49;19.02;;;10.60;;
48847;SDS011;36611;51.638;5.784;2023-02-11T02:01:19;18.83;;;10.85;;
48847;SDS011;36611;51.638;5.784;2023-02-11T02:03:51;16.55;;;11.02;;
48847;SDS011;36611;51.638;5.784;2023-02-11T02:06:24;20.50;;;11.20;;
48847;SDS011;36611;51.638;5.784;2023-02-11T02:09:15;18.00;;;11.60;;
48847;SDS011;36611;51.638;5.784;2023-02-11T02:11:53;14.45;;;10.57;;
48847;SDS011;36611;51.638;5.784;2023-02-11T02:14:20;20.75;;;10.77;;
48847;SDS011;36611;51.638;5.784;2023-02-11T02:16:46;17.08;;;11.15;;
48847;SDS011;36611;51.638;5.784;2023-02-11T02:22:28;18.90;;;11.35;;
48847;SDS011;36611;51.638;5.784;2023-02-11T02:33:41;17.40;;;11.20;;
48847;SDS011;36611;51.638;5.784;2023-02-11T02:36:17;18.27;;;11.32;;
48847;SDS011;36611;51.638;5.784;2023-02-11T02:38:54;19.25;;;11.25;;
48847;SDS011;36611;51.638;5.784;2023-02-11T02:41:27;18.75;;;11.15;;
48847;SDS011;36611;51.638;5.784;2023-02-11T02:43:57;20.13;;;11.82;;
48847;SDS011;36611;51.638;5.784;2023-02-11T02:46:25;19.63;;;11.90;;
48847;SDS011;36611;51.638;5.784;2023-02-11T02:48:57;18.33;;;11.23;;
48847;SDS011;36611;51.638;5.784;2023-02-11T02:57:37;17.30;;;11.30;;
48847;SDS011;36611;51.638;5.784;2023-02-11T03:11:38;21.05;;;11.77;;
48847;SDS011;36611;51.638;5.784;2023-02-11T03:14:06;25.42;;;11.68;;
48847;SDS011;36611;51.638;5.784;2023-02-11T03:16:35;20.27;;;10.73;;
48847;SDS011;36611;51.638;5.784;2023-02-11T03:19:07;20.08;;;11.05;;
48847;SDS011;36611;51.638;5.784;2023-02-11T03:21:39;18.80;;;10.98;;
48847;SDS011;36611;51.638;5.784;2023-02-11T03:24:13;24.10;;;11.20;;
48847;SDS011;36611;51.638;5.784;2023-02-11T03:26:48;26.02;;;11.55;;
48847;SDS011;36611;51.638;5.784;2023-02-11T03:31:58;19.92;;;10.35;;
48847;SDS011;36611;51.638;5.784;2023-02-11T03:34:35;15.63;;;10.93;;
48847;SDS011;36611;51.638;5.784;2023-02-11T03:37:16;14.50;;;10.80;;
48847;SDS011;36611;51.638;5.784;2023-02-11T03:39:51;18.08;;;11.00;;
48847;SDS011;36611;51.638;5.784;2023-02-11T03:42:22;21.65;;;11.20;;
48847;SDS011;36611;51.638;5.784;2023-02-11T03:44:53;15.20;;;10.40;;
48847;SDS011;36611;51.638;5.784;2023-02-11T03:47:29;21.77;;;11.50;;
48847;SDS011;36611;51.638;5.784;2023-02-11T03:49:59;19.48;;;11.30;;
48847;SDS011;36611;51.638;5.784;2023-02-11T03:52:28;19.92;;;10.23;;
48847;SDS011;36611;51.638;5.784;2023-02-11T03:54:56;19.90;;;11.48;;
48847;SDS011;36611;51.638;5.784;2023-02-11T03:57:25;22.00;;;11.13;;
48847;SDS011;36611;51.638;5.784;2023-02-11T03:59:53;21.92;;;11.35;;
48847;SDS011;36611;51.638;5.784;2023-02-11T04:02:26;15.88;;;10.63;;
48847;SDS011;36611;51.638;5.784;2023-02-11T04:04:56;21.00;;;10.65;;
48847;SDS011;36611;51.638;5.784;2023-02-11T04:07:23;16.13;;;10.88;;
48847;SDS011;36611;51.638;5.784;2023-02-11T04:09:50;18.48;;;10.20;;
48847;SDS011;36611;51.638;5.784;2023-02-11T04:12:17;20.10;;;10.15;;
48847;SDS011;36611;51.638;5.784;2023-02-11T04:14:43;18.88;;;10.00;;
48847;SDS011;36611;51.638;5.784;2023-02-11T04:17:10;17.30;;;10.00;;
48847;SDS011;36611;51.638;5.784;2023-02-11T04:19:38;18.63;;;10.15;;
48847;SDS011;36611;51.638;5.784;2023-02-11T04:22:05;18.88;;;10.32;;
48847;SDS011;36611;51.638;5.784;2023-02-11T04:24:32;24.38;;;10.68;;
48847;SDS011;36611;51.638;5.784;2023-02-11T04:26:59;18.27;;;11.23;;
48847;SDS011;36611;51.638;5.784;2023-02-11T04:29:26;17.42;;;10.63;;
48847;SDS011;36611;51.638;5.784;2023-02-11T04:31:53;20.77;;;11.02;;
48847;SDS011;36611;51.638;5.784;2023-02-11T04:34:20;15.50;;;10.85;;
48847;SDS011;36611;51.638;5.784;2023-02-11T04:36:48;19.70;;;11.15;;
48847;SDS011;36611;51.638;5.784;2023-02-11T04:39:14;23.45;;;11.65;;
48847;SDS011;36611;51.638;5.784;2023-02-11T04:41:41;18.90;;;11.35;;
48847;SDS011;36611;51.638;5.784;2023-02-11T04:44:08;19.27;;;11.65;;
48847;SDS011;36611;51.638;5.784;2023-02-11T04:46:35;26.42;;;11.68;;
48847;SDS011;36611;51.638;5.784;2023-02-11T04:49:02;20.35;;;10.63;;
48847;SDS011;36611;51.638;5.784;2023-02-11T04:51:29;17.38;;;11.07;;
48847;SDS011;36611;51.638;5.784;2023-02-11T04:53:56;18.05;;;11.38;;
48847;SDS011;36611;51.638;5.784;2023-02-11T04:56:22;24.73;;;11.50;;
48847;SDS011;36611;51.638;5.784;2023-02-11T04:58:49;18.35;;;10.85;;
48847;SDS011;36611;51.638;5.784;2023-02-11T05:01:16;20.05;;;10.88;;
48847;SDS011;36611;51.638;5.784;2023-02-11T05:03:42;18.00;;;11.35;;
48847;SDS011;36611;51.638;5.784;2023-02-11T05:06:09;19.00;;;11.25;;
48847;SDS011;36611;51.638;5.784;2023-02-11T05:08:37;19.88;;;12.00;;
48847;SDS011;36611;51.638;5.784;2023-02-11T05:11:03;21.83;;;11.48;;
48847;SDS011;36611;51.638;5.784;2023-02-11T05:13:31;20.35;;;11.30;;
48847;SDS011;36611;51.638;5.784;2023-02-11T05:15:58;20.67;;;11.82;;
48847;SDS011;36611;51.638;5.784;2023-02-11T05:18:25;20.70;;;11.68;;
48847;SDS011;36611;51.638;5.784;2023-02-11T05:20:51;20.27;;;11.95;;
48847;SDS011;36611;51.638;5.784;2023-02-11T05:23:18;23.05;;;11.88;;
48847;SDS011;36611;51.638;5.784;2023-02-11T05:25:44;21.58;;;12.10;;
48847;SDS011;36611;51.638;5.784;2023-02-11T05:28:11;21.25;;;12.05;;
48847;SDS011;36611;51.638;5.784;2023-02-11T05:30:38;20.73;;;12.55;;
48847;SDS011;36611;51.638;5.784;2023-02-11T05:33:05;26.05;;;12.30;;
48847;SDS011;36611;51.638;5.784;2023-02-11T05:35:31;21.25;;;12.18;;
48847;SDS011;36611;51.638;5.784;2023-02-11T05:37:58;20.13;;;12.82;;
48847;SDS011;36611;51.638;5.784;2023-02-11T05:40:25;22.42;;;12.57;;
48847;SDS011;36611;51.638;5.784;2023-02-11T05:42:52;24.73;;;12.77;;
48847;SDS011;36611;51.638;5.784;2023-02-11T05:45:18;21.02;;;12.55;;
48847;SDS011;36611;51.638;5.784;2023-02-11T05:47:45;20.58;;;12.45;;
48847;SDS011;36611;51.638;5.784;2023-02-11T05:50:12;24.52;;;13.30;;
48847;SDS011;36611;51.638;5.784;2023-02-11T05:52:38;25.25;;;13.13;;
48847;SDS011;36611;51.638;5.784;2023-02-11T05:55:05;22.77;;;12.82;;
48847;SDS011;36611;51.638;5.784;2023-02-11T05:57:32;21.40;;;12.68;;
48847;SDS011;36611;51.638;5.784;2023-02-11T05:59:59;22.35;;;12.95;;
48847;SDS011;36611;51.638;5.784;2023-02-11T06:02:25;21.75;;;13.98;;
48847;SDS011;36611;51.638;5.784;2023-02-11T06:04:52;20.55;;;13.63;;
48847;SDS011;36611;51.638;5.784;2023-02-11T06:07:19;18.83;;;13.50;;
48847;SDS011;36611;51.638;5.784;2023-02-11T06:09:45;24.73;;;14.40;;
48847;SDS011;36611;51.638;5.784;2023-02-11T06:12:12;22.55;;;14.48;;
48847;SDS011;36611;51.638;5.784;2023-02-11T06:14:38;20.80;;;13.32;;
48847;SDS011;36611;51.638;5.784;2023-02-11T06:17:05;23.00;;;14.00;;
48847;SDS011;36611;51.638;5.784;2023-02-11T06:19:32;22.92;;;13.82;;
48847;SDS011;36611;51.638;5.784;2023-02-11T06:21:59;24.30;;;14.68;;
48847;SDS011;36611;51.638;5.784;2023-02-11T06:24:25;21.17;;;13.93;;
48847;SDS011;36611;51.638;5.784;2023-02-11T06:27:12;27.85;;;15.20;;
48847;SDS011;36611;51.638;5.784;2023-02-11T06:29:38;23.40;;;13.98;;
48847;SDS011;36611;51.638;5.784;2023-02-11T06:32:05;24.00;;;14.13;;
48847;SDS011;36611;51.638;5.784;2023-02-11T06:34:36;30.25;;;15.65;;
48847;SDS011;36611;51.638;5.784;2023-02-11T06:37:04;31.27;;;17.15;;
48847;SDS011;36611;51.638;5.784;2023-02-11T06:39:30;25.73;;;15.23;;
48847;SDS011;36611;51.638;5.784;2023-02-11T06:41:57;28.02;;;16.55;;
48847;SDS011;36611;51.638;5.784;2023-02-11T06:44:24;26.23;;;15.57;;
48847;SDS011;36611;51.638;5.784;2023-02-11T06:46:51;27.17;;;15.85;;
48847;SDS011;36611;51.638;5.784;2023-02-11T06:49:17;25.67;;;16.05;;
48847;SDS011;36611;51.638;5.784;2023-02-11T06:51:44;22.27;;;16.13;;
48847;SDS011;36611;51.638;5.784;2023-02-11T06:54:11;26.25;;;16.95;;
48847;SDS011;36611;51.638;5.784;2023-02-11T06:56:38;27.92;;;16.40;;
48847;SDS011;36611;51.638;5.784;2023-02-11T06:59:06;27.98;;;16.98;;
48847;SDS011;36611;51.638;5.784;2023-02-11T07:01:32;26.30;;;16.02;;
48847;SDS011;36611;51.638;5.784;2023-02-11T07:03:59;28.60;;;17.70;;
48847;SDS011;36611;51.638;5.784;2023-02-11T07:06:26;28.67;;;17.02;;
48847;SDS011;36611;51.638;5.784;2023-02-11T07:08:53;25.67;;;17.25;;
48847;SDS011;36611;51.638;5.784;2023-02-11T07:11:22;30.67;;;18.02;;
48847;SDS011;36611;51.638;5.784;2023-02-11T07:13:51;30.23;;;18.60;;
48847;SDS011;36611;51.638;5.784;2023-02-11T07:16:20;30.40;;;18.92;;
48847;SDS011;36611;51.638;5.784;2023-02-11T07:18:47;33.60;;;19.38;;
48847;SDS011;36611;51.638;5.784;2023-02-11T07:21:15;33.15;;;18.83;;
48847;SDS011;36611;51.638;5.784;2023-02-11T07:23:44;32.00;;;20.05;;
48847;SDS011;36611;51.638;5.784;2023-02-11T07:26:12;33.83;;;18.50;;
48847;SDS011;36611;51.638;5.784;2023-02-11T07:28:41;31.30;;;19.60;;
48847;SDS011;36611;51.638;5.784;2023-02-11T07:31:10;32.03;;;19.63;;
48847;SDS011;36611;51.638;5.784;2023-02-11T07:33:37;33.20;;;20.08;;
48847;SDS011;36611;51.638;5.784;2023-02-11T07:36:08;34.92;;;21.92;;
48847;SDS011;36611;51.638;5.784;2023-02-11T07:38:36;35.35;;;21.10;;
48847;SDS011;36611;51.638;5.784;2023-02-11T07:41:05;32.88;;;21.52;;
48847;SDS011;36611;51.638;5.784;2023-02-11T07:43:33;35.33;;;21.13;;
48847;SDS011;36611;51.638;5.784;2023-02-11T07:46:08;34.58;;;20.77;;
48847;SDS011;36611;51.638;5.784;2023-02-11T07:48:47;36.35;;;22.75;;
48847;SDS011;36611;51.638;5.784;2023-02-11T07:51:15;36.03;;;21.13;;
48847;SDS011;36611;51.638;5.784;2023-02-11T07:53:46;34.47;;;22.23;;
48847;SDS011;36611;51.638;5.784;2023-02-11T07:56:14;37.45;;;22.75;;
48847;SDS011;36611;51.638;5.784;2023-02-11T07:58:42;40.28;;;23.60;;
48847;SDS011;36611;51.638;5.784;2023-02-11T08:01:12;35.78;;;22.73;;
48847;SDS011;36611;51.638;5.784;2023-02-11T08:03:41;36.05;;;22.58;;
48847;SDS011;36611;51.638;5.784;2023-02-11T08:06:10;45.63;;;24.55;;
48847;SDS011;36611;51.638;5.784;2023-02-11T08:08:38;40.15;;;24.17;;
48847;SDS011;36611;51.638;5.784;2023-02-11T08:11:09;35.30;;;23.58;;
48847;SDS011;36611;51.638;5.784;2023-02-11T08:13:40;43.80;;;23.40;;
48847;SDS011;36611;51.638;5.784;2023-02-11T08:16:07;40.80;;;25.13;;
48847;SDS011;36611;51.638;5.784;2023-02-11T08:18:35;39.17;;;24.20;;
48847;SDS011;36611;51.638;5.784;2023-02-11T08:21:05;39.15;;;24.27;;
48847;SDS011;36611;51.638;5.784;2023-02-11T08:23:34;42.22;;;25.65;;
48847;SDS011;36611;51.638;5.784;2023-02-11T08:26:04;41.33;;;25.75;;
48847;SDS011;36611;51.638;5.784;2023-02-11T08:28:34;49.53;;;25.70;;
48847;SDS011;36611;51.638;5.784;2023-02-11T08:31:05;42.53;;;25.83;;
48847;SDS011;36611;51.638;5.784;2023-02-11T08:33:37;44.85;;;27.05;;
48847;SDS011;36611;51.638;5.784;2023-02-11T08:36:09;39.78;;;26.85;;
48847;SDS011;36611;51.638;5.784;2023-02-11T08:38:37;44.05;;;27.13;;
48847;SDS011;36611;51.638;5.784;2023-02-11T08:41:04;44.28;;;28.17;;
48847;SDS011;36611;51.638;5.784;2023-02-11T08:43:31;44.40;;;28.60;;
48847;SDS011;36611;51.638;5.784;2023-02-11T08:45:59;45.72;;;28.40;;
48847;SDS011;36611;51.638;5.784;2023-02-11T08:48:27;46.83;;;26.98;;
48847;SDS011;36611;51.638;5.784;2023-02-11T08:50:54;48.35;;;28.38;;
48847;SDS011;36611;51.638;5.784;2023-02-11T08:53:21;47.17;;;28.73;;
48847;SDS011;36611;51.638;5.784;2023-02-11T08:55:52;46.10;;;28.20;;
48847;SDS011;36611;51.638;5.784;2023-02-11T08:58:20;42.60;;;27.83;;
48847;SDS011;36611;51.638;5.784;2023-02-11T09:00:48;50.30;;;28.85;;
48847;SDS011;36611;51.638;5.784;2023-02-11T09:03:16;47.55;;;29.50;;
48847;SDS011;36611;51.638;5.784;2023-02-11T09:05:43;50.78;;;29.98;;
48847;SDS011;36611;51.638;5.784;2023-02-11T09:08:14;49.78;;;30.88;;
48847;SDS011;36611;51.638;5.784;2023-02-11T09:10:41;47.08;;;30.88;;
48847;SDS011;36611;51.638;5.784;2023-02-11T09:13:08;48.25;;;30.77;;
48847;SDS011;36611;51.638;5.784;2023-02-11T09:15:35;52.75;;;33.30;;
48847;SDS011;36611;51.638;5.784;2023-02-11T09:18:02;45.13;;;30.70;;
48847;SDS011;36611;51.638;5.784;2023-02-11T09:20:29;50.03;;;30.77;;
48847;SDS011;36611;51.638;5.784;2023-02-11T09:22:59;46.20;;;30.05;;
48847;SDS011;36611;51.638;5.784;2023-02-11T09:25:26;48.42;;;29.23;;
48847;SDS011;36611;51.638;5.784;2023-02-11T09:27:52;49.70;;;30.95;;
48847;SDS011;36611;51.638;5.784;2023-02-11T09:30:19;49.45;;;30.17;;
48847;SDS011;36611;51.638;5.784;2023-02-11T09:32:46;51.60;;;29.55;;
48847;SDS011;36611;51.638;5.784;2023-02-11T09:35:13;52.35;;;31.15;;
48847;SDS011;36611;51.638;5.784;2023-02-11T09:37:40;46.40;;;29.70;;
48847;SDS011;36611;51.638;5.784;2023-02-11T09:40:07;52.28;;;30.15;;
48847;SDS011;36611;51.638;5.784;2023-02-11T09:45:20;48.60;;;30.48;;
48847;SDS011;36611;51.638;5.784;2023-02-11T09:47:51;47.45;;;29.70;;
48847;SDS011;36611;51.638;5.784;2023-02-11T09:50:23;51.85;;;30.55;;
48847;SDS011;36611;51.638;5.784;2023-02-11T09:53:05;51.22;;;31.40;;
48847;SDS011;36611;51.638;5.784;2023-02-11T09:55:59;50.40;;;30.77;;
48847;SDS011;36611;51.638;5.784;2023-02-11T09:58:33;52.65;;;31.35;;
48847;SDS011;36611;51.638;5.784;2023-02-11T10:01:13;51.20;;;30.25;;
48847;SDS011;36611;51.638;5.784;2023-02-11T10:07:24;49.10;;;31.52;;
48847;SDS011;36611;51.638;5.784;2023-02-11T10:10:55;48.35;;;30.60;;
48847;SDS011;36611;51.638;5.784;2023-02-11T10:21:41;58.38;;;32.70;;
48847;SDS011;36611;51.638;5.784;2023-02-11T10:24:17;43.38;;;30.88;;
48847;SDS011;36611;51.638;5.784;2023-02-11T10:26:45;51.47;;;31.73;;
48847;SDS011;36611;51.638;5.784;2023-02-11T10:32:03;51.83;;;30.50;;
48847;SDS011;36611;51.638;5.784;2023-02-11T10:34:40;49.53;;;31.40;;
48847;SDS011;36611;51.638;5.784;2023-02-11T10:37:08;43.97;;;30.67;;
48847;SDS011;36611;51.638;5.784;2023-02-11T10:39:39;45.75;;;30.70;;
48847;SDS011;36611;51.638;5.784;2023-02-11T10:42:07;48.50;;;30.75;;
48847;SDS011;36611;51.638;5.784;2023-02-11T10:44:41;50.58;;;31.98;;
48847;SDS011;36611;51.638;5.784;2023-02-11T10:47:21;50.40;;;33.15;;
48847;SDS011;36611;51.638;5.784;2023-02-11T10:49:49;49.35;;;31.70;;
48847;SDS011;36611;51.638;5.784;2023-02-11T10:54:56;49.08;;;32.05;;
48847;SDS011;36611;51.638;5.784;2023-02-11T10:57:30;50.25;;;31.23;;
48847;SDS011;36611;51.638;5.784;2023-02-11T11:00:19;50.67;;;31.70;;
48847;SDS011;36611;51.638;5.784;2023-02-11T11:02:56;49.28;;;31.25;;
48847;SDS011;36611;51.638;5.784;2023-02-11T11:05:32;52.63;;;33.97;;
48847;SDS011;36611;51.638;5.784;2023-02-11T11:08:05;51.03;;;33.28;;
48847;SDS011;36611;51.638;5.784;2023-02-11T11:10:40;49.58;;;32.35;;
48847;SDS011;36611;51.638;5.784;2023-02-11T11:13:28;48.35;;;32.38;;
48847;SDS011;36611;51.638;5.784;2023-02-11T11:18:34;49.55;;;32.20;;
48847;SDS011;36611;51.638;5.784;2023-02-11T11:21:02;51.15;;;33.90;;
48847;SDS011;36611;51.638;5.784;2023-02-11T11:23:35;52.78;;;33.45;;
48847;SDS011;36611;51.638;5.784;2023-02-11T11:26:05;52.97;;;34.53;;
48847;SDS011;36611;51.638;5.784;2023-02-11T11:28:40;54.90;;;34.35;;
48847;SDS011;36611;51.638;5.784;2023-02-11T11:31:22;51.10;;;34.47;;
48847;SDS011;36611;51.638;5.784;2023-02-11T11:33:55;57.97;;;33.70;;
48847;SDS011;36611;51.638;5.784;2023-02-11T11:36:46;49.42;;;34.05;;
48847;SDS011;36611;51.638;5.784;2023-02-11T11:39:24;50.88;;;34.10;;
48847;SDS011;36611;51.638;5.784;2023-02-11T11:44:35;54.85;;;33.72;;
48847;SDS011;36611;51.638;5.784;2023-02-11T11:52:36;47.95;;;32.45;;
48847;SDS011;36611;51.638;5.784;2023-02-11T11:55:28;42.95;;;30.23;;
48847;SDS011;36611;51.638;5.784;2023-02-11T11:58:00;46.50;;;31.67;;
48847;SDS011;36611;51.638;5.784;2023-02-11T12:00:30;45.38;;;31.50;;
48847;SDS011;36611;51.638;5.784;2023-02-11T12:08:38;51.65;;;31.00;;
48847;SDS011;36611;51.638;5.784;2023-02-11T12:13:53;46.28;;;31.00;;
48847;SDS011;36611;51.638;5.784;2023-02-11T12:22:29;46.45;;;32.00;;
48847;SDS011;36611;51.638;5.784;2023-02-11T12:25:29;46.33;;;29.75;;
48847;SDS011;36611;51.638;5.784;2023-02-11T12:45:52;40.00;;;27.58;;
48847;SDS011;36611;51.638;5.784;2023-02-11T12:51:48;34.67;;;27.38;;
48847;SDS011;36611;51.638;5.784;2023-02-11T12:57:14;35.83;;;26.45;;
48847;SDS011;36611;51.638;5.784;2023-02-11T13:00:02;38.92;;;27.38;;
48847;SDS011;36611;51.638;5.784;2023-02-11T13:02:37;37.20;;;26.05;;
48847;SDS011;36611;51.638;5.784;2023-02-11T13:05:19;40.25;;;26.02;;
48847;SDS011;36611;51.638;5.784;2023-02-11T13:07:50;35.58;;;26.45;;
48847;SDS011;36611;51.638;5.784;2023-02-11T13:12:53;32.90;;;25.08;;
48847;SDS011;36611;51.638;5.784;2023-02-11T13:15:50;27.42;;;22.75;;
48847;SDS011;36611;51.638;5.784;2023-02-11T13:18:24;31.83;;;24.85;;
48847;SDS011;36611;51.638;5.784;2023-02-11T13:23:46;34.95;;;24.33;;
48847;SDS011;36611;51.638;5.784;2023-02-11T13:26:28;35.33;;;22.58;;
48847;SDS011;36611;51.638;5.784;2023-02-11T13:29:21;31.67;;;21.92;;
48847;SDS011;36611;51.638;5.784;2023-02-11T13:32:04;28.52;;;20.92;;
48847;SDS011;36611;51.638;5.784;2023-02-11T13:40:23;27.42;;;21.77;;
48847;SDS011;36611;51.638;5.784;2023-02-11T13:42:56;31.50;;;23.85;;
48847;SDS011;36611;51.638;5.784;2023-02-11T13:45:29;30.95;;;23.08;;
48847;SDS011;36611;51.638;5.784;2023-02-11T13:48:01;30.02;;;22.85;;
48847;SDS011;36611;51.638;5.784;2023-02-11T13:50:31;34.53;;;24.35;;
48847;SDS011;36611;51.638;5.784;2023-02-11T13:53:05;28.08;;;23.42;;
48847;SDS011;36611;51.638;5.784;2023-02-11T13:55:34;30.90;;;24.00;;
48847;SDS011;36611;51.638;5.784;2023-02-11T14:03:43;29.30;;;22.73;;
48847;SDS011;36611;51.638;5.784;2023-02-11T14:11:41;29.20;;;22.20;;
48847;SDS011;36611;51.638;5.784;2023-02-11T14:14:17;31.85;;;23.70;;
48847;SDS011;36611;51.638;5.784;2023-02-11T14:24:50;29.05;;;20.20;;
48847;SDS011;36611;51.638;5.784;2023-02-11T14:27:21;27.55;;;20.98;;
48847;SDS011;36611;51.638;5.784;2023-02-11T14:43:29;23.92;;;18.80;;
48847;SDS011;36611;51.638;5.784;2023-02-11T14:46:00;25.52;;;19.67;;
48847;SDS011;36611;51.638;5.784;2023-02-11T14:48:35;28.20;;;19.48;;
48847;SDS011;36611;51.638;5.784;2023-02-11T14:53:42;24.45;;;20.02;;
48847;SDS011;36611;51.638;5.784;2023-02-11T14:56:47;24.52;;;19.10;;
48847;SDS011;36611;51.638;5.784;2023-02-11T14:59:17;27.02;;;19.30;;
48847;SDS011;36611;51.638;5.784;2023-02-11T15:01:50;24.95;;;19.30;;
48847;SDS011;36611;51.638;5.784;2023-02-11T15:04:21;25.52;;;19.05;;
48847;SDS011;36611;51.638;5.784;2023-02-11T15:06:51;24.38;;;18.90;;
48847;SDS011;36611;51.638;5.784;2023-02-11T15:09:20;22.67;;;17.98;;
48847;SDS011;36611;51.638;5.784;2023-02-11T15:11:53;22.73;;;18.13;;
48847;SDS011;36611;51.638;5.784;2023-02-11T15:14:23;27.70;;;17.92;;
48847;SDS011;36611;51.638;5.784;2023-02-11T15:16:53;23.30;;;18.17;;
48847;SDS011;36611;51.638;5.784;2023-02-11T15:19:32;24.73;;;20.08;;
48847;SDS011;36611;51.638;5.784;2023-02-11T15:22:05;24.27;;;18.35;;
48847;SDS011;36611;51.638;5.784;2023-02-11T15:24:43;22.02;;;16.98;;
48847;SDS011;36611;51.638;5.784;2023-02-11T15:27:11;23.92;;;17.70;;
48847;SDS011;36611;51.638;5.784;2023-02-11T15:29:44;23.17;;;17.50;;
48847;SDS011;36611;51.638;5.784;2023-02-11T15:32:15;27.45;;;18.23;;
48847;SDS011;36611;51.638;5.784;2023-02-11T15:34:48;24.23;;;18.27;;
48847;SDS011;36611;51.638;5.784;2023-02-11T15:37:26;22.15;;;18.23;;
48847;SDS011;36611;51.638;5.784;2023-02-11T15:40:07;21.65;;;17.77;;
48847;SDS011;36611;51.638;5.784;2023-02-11T15:42:51;21.83;;;17.88;;
48847;SDS011;36611;51.638;5.784;2023-02-11T15:45:24;22.65;;;16.42;;
48847;SDS011;36611;51.638;5.784;2023-02-11T15:47:55;23.60;;;17.65;;
48847;SDS011;36611;51.638;5.784;2023-02-11T15:50:32;22.98;;;17.58;;
48847;SDS011;36611;51.638;5.784;2023-02-11T15:53:04;26.77;;;19.23;;
48847;SDS011;36611;51.638;5.784;2023-02-11T15:55:45;23.10;;;17.55;;
48847;SDS011;36611;51.638;5.784;2023-02-11T15:58:14;23.80;;;19.25;;
48847;SDS011;36611;51.638;5.784;2023-02-11T16:00:45;23.70;;;18.92;;
48847;SDS011;36611;51.638;5.784;2023-02-11T16:03:19;25.17;;;17.58;;
48847;SDS011;36611;51.638;5.784;2023-02-11T16:05:50;24.70;;;18.67;;
48847;SDS011;36611;51.638;5.784;2023-02-11T16:08:19;30.67;;;18.65;;
48847;SDS011;36611;51.638;5.784;2023-02-11T16:11:01;24.63;;;18.20;;
48847;SDS011;36611;51.638;5.784;2023-02-11T16:13:44;23.58;;;18.17;;
48847;SDS011;36611;51.638;5.784;2023-02-11T16:16:22;29.00;;;17.00;;
48847;SDS011;36611;51.638;5.784;2023-02-11T16:18:55;23.90;;;17.08;;
48847;SDS011;36611;51.638;5.784;2023-02-11T16:21:32;24.10;;;16.85;;
48847;SDS011;36611;51.638;5.784;2023-02-11T16:24:01;25.92;;;17.00;;
48847;SDS011;36611;51.638;5.784;2023-02-11T16:26:30;23.17;;;18.33;;
48847;SDS011;36611;51.638;5.784;2023-02-11T16:31:39;22.85;;;16.85;;
48847;SDS011;36611;51.638;5.784;2023-02-11T16:34:23;25.73;;;18.77;;
48847;SDS011;36611;51.638;5.784;2023-02-11T16:36:51;26.58;;;20.02;;
48847;SDS011;36611;51.638;5.784;2023-02-11T16:39:18;25.42;;;18.65;;
48847;SDS011;36611;51.638;5.784;2023-02-11T16:41:47;27.42;;;20.10;;
48847;SDS011;36611;51.638;5.784;2023-02-11T16:44:18;27.30;;;20.27;;
48847;SDS011;36611;51.638;5.784;2023-02-11T16:46:45;25.27;;;20.73;;
48847;SDS011;36611;51.638;5.784;2023-02-11T16:49:16;26.20;;;19.77;;
48847;SDS011;36611;51.638;5.784;2023-02-11T16:51:47;25.63;;;20.50;;
48847;SDS011;36611;51.638;5.784;2023-02-11T16:54:17;29.52;;;21.55;;
48847;SDS011;36611;51.638;5.784;2023-02-11T16:56:45;29.27;;;21.83;;
48847;SDS011;36611;51.638;5.784;2023-02-11T16:59:12;26.05;;;21.05;;
48847;SDS011;36611;51.638;5.784;2023-02-11T17:01:38;31.27;;;22.05;;
48847;SDS011;36611;51.638;5.784;2023-02-11T17:07:10;28.00;;;20.67;;
48847;SDS011;36611;51.638;5.784;2023-02-11T17:09:36;29.08;;;21.17;;
48847;SDS011;36611;51.638;5.784;2023-02-11T17:12:03;29.05;;;22.20;;
48847;SDS011;36611;51.638;5.784;2023-02-11T17:14:31;31.85;;;21.67;;
48847;SDS011;36611;51.638;5.784;2023-02-11T17:16:58;29.30;;;21.45;;
48847;SDS011;36611;51.638;5.784;2023-02-11T17:19:25;30.60;;;22.02;;
48847;SDS011;36611;51.638;5.784;2023-02-11T17:21:51;28.98;;;20.98;;